sensor_id;sensor_type;location;lat;lon;timestamp;temperature;humidity
49821;DHT22;36893;52.520;13.450;2024-03-25T00:08:33;21.20;74.80
49821;DHT22;36893;52.520;13.450;2024-03-25T00:18:34;21.20;74.70
49821;DHT22;36893;52.520;13.450;2024-03-25T00:28:34;21.20;74.60
49821;DHT22;36893;52.520;13.450;2024-03-25T00:38:35;21.30;74.70
49821;DHT22;36893;52.520;13.450;2024-03-25T00:48:35;21.20;74.50
49821;DHT22;36893;52.520;13.450;2024-03-25T00:58:37;21.20;74.40
49821;DHT22;36893;52.520;13.450;2024-03-25T01:08:38;21.20;74.40
49821;DHT22;36893;52.520;13.450;2024-03-25T01:18:38;21.30;74.40
49821;DHT22;36893;52.520;13.450;2024-03-25T01:28:39;21.30;74.40
49821;DHT22;36893;52.520;13.450;2024-03-25T01:38:39;21.30;74.40
49821;DHT22;36893;52.520;13.450;2024-03-25T01:48:40;21.30;74.40
49821;DHT22;36893;52.520;13.450;2024-03-25T01:58:40;21.30;74.40
49821;DHT22;36893;52.520;13.450;2024-03-25T02:08:41;21.30;74.30
49821;DHT22;36893;52.520;13.450;2024-03-25T02:18:42;21.30;74.30
49821;DHT22;36893;52.520;13.450;2024-03-25T02:28:42;21.30;74.40
49821;DHT22;36893;52.520;13.450;2024-03-25T02:38:43;21.30;74.30
49821;DHT22;36893;52.520;13.450;2024-03-25T02:48:46;21.30;74.30
49821;DHT22;36893;52.520;13.450;2024-03-25T02:58:46;21.30;74.30
49821;DHT22;36893;52.520;13.450;2024-03-25T03:08:46;21.40;74.30
49821;DHT22;36893;52.520;13.450;2024-03-25T03:18:47;21.30;74.20
49821;DHT22;36893;52.520;13.450;2024-03-25T03:28:48;21.30;74.20
49821;DHT22;36893;52.520;13.450;2024-03-25T03:38:51;21.30;74.20
49821;DHT22;36893;52.520;13.450;2024-03-25T03:48:51;21.30;74.10
49821;DHT22;36893;52.520;13.450;2024-03-25T03:58:52;21.30;74.10
49821;DHT22;36893;52.520;13.450;2024-03-25T04:08:52;21.30;74.10
49821;DHT22;36893;52.520;13.450;2024-03-25T04:18:53;21.40;74.10
49821;DHT22;36893;52.520;13.450;2024-03-25T04:28:53;21.30;74.00
49821;DHT22;36893;52.520;13.450;2024-03-25T04:38:54;21.40;74.10
49821;DHT22;36893;52.520;13.450;2024-03-25T04:48:54;21.30;73.90
49821;DHT22;36893;52.520;13.450;2024-03-25T04:58:54;21.30;73.90
49821;DHT22;36893;52.520;13.450;2024-03-25T05:09:00;21.40;74.10
49821;DHT22;36893;52.520;13.450;2024-03-25T05:19:00;21.40;73.90
49821;DHT22;36893;52.520;13.450;2024-03-25T05:29:01;21.30;73.90
49821;DHT22;36893;52.520;13.450;2024-03-25T05:39:01;21.40;73.80
49821;DHT22;36893;52.520;13.450;2024-03-25T05:49:03;21.30;73.80
49821;DHT22;36893;52.520;13.450;2024-03-25T05:59:04;21.40;73.90
49821;DHT22;36893;52.520;13.450;2024-03-25T06:09:04;21.30;73.70
49821;DHT22;36893;52.520;13.450;2024-03-25T06:19:05;21.40;73.80
49821;DHT22;36893;52.520;13.450;2024-03-25T06:29:06;21.40;73.80
49821;DHT22;36893;52.520;13.450;2024-03-25T06:39:06;21.30;73.60
49821;DHT22;36893;52.520;13.450;2024-03-25T06:49:07;21.40;73.70
49821;DHT22;36893;52.520;13.450;2024-03-25T06:59:07;21.30;73.70
49821;DHT22;36893;52.520;13.450;2024-03-25T07:09:08;21.40;73.70
49821;DHT22;36893;52.520;13.450;2024-03-25T07:19:11;21.40;73.70
49821;DHT22;36893;52.520;13.450;2024-03-25T07:29:11;21.40;73.50
49821;DHT22;36893;52.520;13.450;2024-03-25T07:39:12;21.40;73.50
49821;DHT22;36893;52.520;13.450;2024-03-25T07:49:13;21.40;73.50
49821;DHT22;36893;52.520;13.450;2024-03-25T07:59:13;21.40;73.50
49821;DHT22;36893;52.520;13.450;2024-03-25T08:09:14;21.40;73.50
49821;DHT22;36893;52.520;13.450;2024-03-25T08:19:16;21.40;73.60
49821;DHT22;36893;52.520;13.450;2024-03-25T08:29:16;21.40;73.50
49821;DHT22;36893;52.520;13.450;2024-03-25T08:39:16;21.40;73.60
49821;DHT22;36893;52.520;13.450;2024-03-25T08:49:17;21.40;73.50
49821;DHT22;36893;52.520;13.450;2024-03-25T08:59:17;21.40;73.50
49821;DHT22;36893;52.520;13.450;2024-03-25T09:09:18;21.40;73.50
49821;DHT22;36893;52.520;13.450;2024-03-25T09:19:37;21.30;73.50
49821;DHT22;36893;52.520;13.450;2024-03-25T09:29:38;21.40;73.50
49821;DHT22;36893;52.520;13.450;2024-03-25T09:39:38;21.40;73.40
49821;DHT22;36893;52.520;13.450;2024-03-25T09:49:40;21.40;73.30
49821;DHT22;36893;52.520;13.450;2024-03-25T09:59:43;21.40;73.30
49821;DHT22;36893;52.520;13.450;2024-03-25T10:09:43;21.40;73.30
49821;DHT22;36893;52.520;13.450;2024-03-25T10:19:44;21.40;73.30
49821;DHT22;36893;52.520;13.450;2024-03-25T10:29:44;21.40;73.30
49821;DHT22;36893;52.520;13.450;2024-03-25T10:39:50;21.40;73.40
49821;DHT22;36893;52.520;13.450;2024-03-25T10:49:58;21.40;73.40
49821;DHT22;36893;52.520;13.450;2024-03-25T11:00:01;21.40;73.30
49821;DHT22;36893;52.520;13.450;2024-03-25T11:10:07;21.50;73.40
49821;DHT22;36893;52.520;13.450;2024-03-25T11:20:11;21.50;73.30
49821;DHT22;36893;52.520;13.450;2024-03-25T11:30:14;21.50;73.20
49821;DHT22;36893;52.520;13.450;2024-03-25T11:40:16;21.10;74.70
49821;DHT22;36893;52.520;13.450;2024-03-25T11:50:18;20.90;75.60
49821;DHT22;36893;52.520;13.450;2024-03-25T12:00:19;21.10;75.60
49821;DHT22;36893;52.520;13.450;2024-03-25T12:10:19;21.20;75.20
49821;DHT22;36893;52.520;13.450;2024-03-25T12:20:38;21.40;75.10
49821;DHT22;36893;52.520;13.450;2024-03-25T12:30:51;21.50;75.00
49821;DHT22;36893;52.520;13.450;2024-03-25T12:41:04;21.50;74.80
49821;DHT22;36893;52.520;13.450;2024-03-25T12:51:04;21.60;74.70
49821;DHT22;36893;52.520;13.450;2024-03-25T13:01:05;21.60;74.60
49821;DHT22;36893;52.520;13.450;2024-03-25T13:11:05;21.70;74.60
49821;DHT22;36893;52.520;13.450;2024-03-25T13:21:06;21.70;74.70
49821;DHT22;36893;52.520;13.450;2024-03-25T13:31:06;21.70;74.70
49821;DHT22;36893;52.520;13.450;2024-03-25T13:41:07;21.70;74.70
49821;DHT22;36893;52.520;13.450;2024-03-25T13:51:07;21.70;74.70
49821;DHT22;36893;52.520;13.450;2024-03-25T14:01:08;21.70;74.70
49821;DHT22;36893;52.520;13.450;2024-03-25T14:11:09;21.70;74.60
49821;DHT22;36893;52.520;13.450;2024-03-25T14:21:10;21.70;74.60
49821;DHT22;36893;52.520;13.450;2024-03-25T14:31:10;21.70;74.50
49821;DHT22;36893;52.520;13.450;2024-03-25T14:41:11;21.70;74.50
49821;DHT22;36893;52.520;13.450;2024-03-25T14:51:12;21.80;74.50
49821;DHT22;36893;52.520;13.450;2024-03-25T15:01:12;21.70;74.30
49821;DHT22;36893;52.520;13.450;2024-03-25T15:11:13;21.60;74.20
49821;DHT22;36893;52.520;13.450;2024-03-25T15:21:13;21.60;74.20
49821;DHT22;36893;52.520;13.450;2024-03-25T15:31:14;21.60;74.10
49821;DHT22;36893;52.520;13.450;2024-03-25T15:41:14;21.70;74.10
49821;DHT22;36893;52.520;13.450;2024-03-25T15:51:16;21.70;74.20
49821;DHT22;36893;52.520;13.450;2024-03-25T16:01:17;21.70;74.20
49821;DHT22;36893;52.520;13.450;2024-03-25T16:11:18;21.30;75.30
49821;DHT22;36893;52.520;13.450;2024-03-25T16:21:18;21.00;76.70
49821;DHT22;36893;52.520;13.450;2024-03-25T16:31:19;21.10;77.00
49821;DHT22;36893;52.520;13.450;2024-03-25T16:41:20;21.30;77.00
49821;DHT22;36893;52.520;13.450;2024-03-25T16:51:22;21.40;76.90
49821;DHT22;36893;52.520;13.450;2024-03-25T17:01:23;21.50;76.90
49821;DHT22;36893;52.520;13.450;2024-03-25T17:11:23;21.60;76.90
49821;DHT22;36893;52.520;13.450;2024-03-25T17:21:24;21.60;76.80
49821;DHT22;36893;52.520;13.450;2024-03-25T17:31:27;21.10;77.40
49821;DHT22;36893;52.520;13.450;2024-03-25T17:41:28;20.20;80.00
49821;DHT22;36893;52.520;13.450;2024-03-25T17:51:28;19.70;81.10
49821;DHT22;36893;52.520;13.450;2024-03-25T18:01:29;19.30;82.60
49821;DHT22;36893;52.520;13.450;2024-03-25T18:11:29;19.20;83.70
49821;DHT22;36893;52.520;13.450;2024-03-25T18:21:30;19.60;83.90
49821;DHT22;36893;52.520;13.450;2024-03-25T18:31:31;20.00;83.20
49821;DHT22;36893;52.520;13.450;2024-03-25T18:41:31;20.40;82.50
49821;DHT22;36893;52.520;13.450;2024-03-25T18:51:33;20.70;81.90
49821;DHT22;36893;52.520;13.450;2024-03-25T19:01:34;20.90;81.50
49821;DHT22;36893;52.520;13.450;2024-03-25T19:11:34;21.00;81.10
49821;DHT22;36893;52.520;13.450;2024-03-25T19:21:35;21.10;80.70
49821;DHT22;36893;52.520;13.450;2024-03-25T19:31:36;21.20;80.40
49821;DHT22;36893;52.520;13.450;2024-03-25T19:41:36;21.30;80.10
49821;DHT22;36893;52.520;13.450;2024-03-25T19:51:37;21.30;79.80
49821;DHT22;36893;52.520;13.450;2024-03-25T20:01:38;21.40;79.50
49821;DHT22;36893;52.520;13.450;2024-03-25T20:11:38;21.40;79.20
49821;DHT22;36893;52.520;13.450;2024-03-25T20:21:39;21.40;78.90
49821;DHT22;36893;52.520;13.450;2024-03-25T20:31:41;21.50;78.70
49821;DHT22;36893;52.520;13.450;2024-03-25T20:41:42;21.50;78.50
49821;DHT22;36893;52.520;13.450;2024-03-25T20:51:42;21.50;78.30
49821;DHT22;36893;52.520;13.450;2024-03-25T21:01:43;21.50;78.10
49821;DHT22;36893;52.520;13.450;2024-03-25T21:11:44;21.50;78.00
49821;DHT22;36893;52.520;13.450;2024-03-25T21:21:45;21.50;77.90
49821;DHT22;36893;52.520;13.450;2024-03-25T21:31:45;21.50;77.80
49821;DHT22;36893;52.520;13.450;2024-03-25T21:41:46;21.50;77.90
49821;DHT22;36893;52.520;13.450;2024-03-25T21:51:47;21.50;77.80
49821;DHT22;36893;52.520;13.450;2024-03-25T22:01:47;21.50;77.70
49821;DHT22;36893;52.520;13.450;2024-03-25T22:11:47;21.50;77.80
49821;DHT22;36893;52.520;13.450;2024-03-25T22:21:48;21.50;77.70
49821;DHT22;36893;52.520;13.450;2024-03-25T22:31:48;21.50;77.60
49821;DHT22;36893;52.520;13.450;2024-03-25T22:41:49;21.50;77.60
49821;DHT22;36893;52.520;13.450;2024-03-25T22:51:49;21.50;77.50
49821;DHT22;36893;52.520;13.450;2024-03-25T23:01:51;21.50;77.50
49821;DHT22;36893;52.520;13.450;2024-03-25T23:11:51;21.50;77.50
49821;DHT22;36893;52.520;13.450;2024-03-25T23:21:52;21.50;77.30
49821;DHT22;36893;52.520;13.450;2024-03-25T23:31:52;21.50;77.30
49821;DHT22;36893;52.520;13.450;2024-03-25T23:41:53;21.50;77.30
49821;DHT22;36893;52.520;13.450;2024-03-25T23:51:53;21.50;77.30
